Time;durP1;ratioP1;P1;durP2;ratioP2;P2;SDS_P1;SDS_P2;PMS_P1;PMS_P2;Temp;Humidity;BMP_temperature;BMP_pressure;BME280_temperature;BME280_humidity;BME280_pressure;Samples;Min_cycle;Max_cycle;Signal;HPM_P1;HPM_P2
2021/09/08 00:01:39;;;;;;;20.12;10.38;;;;;;;11.85;57.13;100495.14;1773713;80;20981;-40
2021/09/08 00:04:05;;;;;;;21.85;10.72;;;;;;;11.83;57.33;100493.31;1773916;80;21157;-40
2021/09/08 00:06:33;;;;;;;18.00;10.13;;;;;;;11.83;57.27;100493.88;1773697;80;20941;-40
2021/09/08 00:09:00;;;;;;;16.25;9.55;;;;;;;11.81;57.52;100489.37;1769510;80;20945;-40
2021/09/08 00:11:27;;;;;;;18.92;10.60;;;;;;;11.81;57.68;100492.88;1763683;81;21033;-40
2021/09/08 00:13:54;;;;;;;17.48;10.28;;;;;;;11.80;57.55;100495.36;1764286;80;21010;-40
2021/09/08 00:16:21;;;;;;;17.20;9.75;;;;;;;11.78;57.58;100490.03;1699467;84;21157;-40
2021/09/08 00:18:50;;;;;;;15.40;9.63;;;;;;;11.76;57.70;100503.38;1766524;80;20977;-39
2021/09/08 00:21:16;;;;;;;16.93;9.83;;;;;;;11.75;57.84;100497.74;1768236;80;21064;-39
2021/09/08 00:23:43;;;;;;;19.67;10.10;;;;;;;11.73;57.76;100497.27;1765236;81;21029;-40
2021/09/08 00:26:14;;;;;;;17.92;9.48;;;;;;;11.74;57.64;100506.22;1765228;81;21512;-39
2021/09/08 00:28:46;;;;;;;16.95;10.13;;;;;;;11.71;57.61;100500.86;1765186;81;21192;-39
2021/09/08 00:31:17;;;;;;;16.37;9.75;;;;;;;11.68;57.30;100494.75;1765205;81;21071;-40
2021/09/08 00:33:49;;;;;;;17.02;9.30;;;;;;;11.67;57.31;100500.52;1749777;81;20989;-40
2021/09/08 00:36:16;;;;;;;17.90;10.30;;;;;;;11.65;57.00;100495.44;1743171;82;20949;-40
2021/09/08 00:38:46;;;;;;;17.05;9.93;;;;;;;11.65;57.15;100495.44;1743113;82;21590;-39
2021/09/08 00:41:13;;;;;;;15.63;10.10;;;;;;;11.64;57.44;100494.41;1743353;82;21123;-39
2021/09/08 00:43:45;;;;;;;15.80;9.48;;;;;;;11.64;57.45;100493.84;1768384;80;21005;-39
2021/09/08 00:46:16;;;;;;;16.95;9.90;;;;;;;11.63;57.21;100492.25;1768790;81;21019;-39
2021/09/08 00:48:45;;;;;;;17.12;9.58;;;;;;;11.60;57.00;100488.88;1769087;81;20981;-40
2021/09/08 00:51:17;;;;;;;16.37;9.78;;;;;;;11.60;57.18;100487.52;1769152;81;20966;-40
2021/09/08 00:53:51;;;;;;;17.90;9.28;;;;;;;11.62;57.18;100489.87;1768983;81;21122;-39
2021/09/08 00:56:18;;;;;;;16.33;9.40;;;;;;;11.63;56.93;100498.25;1769088;81;21587;-40
2021/09/08 00:58:45;;;;;;;15.18;9.43;;;;;;;11.62;56.36;100501.53;1768522;81;21507;-40
2021/09/08 01:01:12;;;;;;;15.65;8.93;;;;;;;11.62;56.66;100492.59;1769128;80;21045;-39
2021/09/08 01:03:44;;;;;;;14.40;8.78;;;;;;;11.61;56.58;100494.53;1768952;81;21049;-40
2021/09/08 01:06:14;;;;;;;17.12;9.35;;;;;;;11.62;56.86;100497.45;1773827;80;21146;-39
2021/09/08 01:08:42;;;;;;;18.35;9.40;;;;;;;11.30;56.45;100442.67;1773878;80;21433;-40
2021/09/08 01:13:08;;;;;;;17.57;9.90;;;;;;;11.65;56.55;100494.08;1788104;78;22654;-39
2021/09/08 01:15:36;;;;;;;14.65;9.25;;;;;;;11.56;57.17;100487.97;1757032;80;21024;-39
2021/09/08 01:18:04;;;;;;;17.05;10.08;;;;;;;11.59;56.98;100487.84;1756929;81;20961;-39
2021/09/08 01:20:31;;;;;;;16.70;9.60;;;;;;;11.63;56.63;100479.23;1756826;80;20913;-40
2021/09/08 01:22:58;;;;;;;15.83;8.95;;;;;;;11.65;56.46;100476.98;1757230;81;20981;-40
2021/09/08 01:25:26;;;;;;;18.62;9.70;;;;;;;11.66;56.43;100476.66;1756979;81;20980;-39
2021/09/08 01:27:54;;;;;;;15.18;9.25;;;;;;;11.67;56.40;100476.86;1723627;83;21564;-40
2021/09/08 01:30:25;;;;;;;19.12;9.98;;;;;;;11.68;56.29;100479.81;1723560;83;21073;-40
2021/09/08 01:32:52;;;;;;;15.85;9.93;;;;;;;11.67;56.39;100480.94;1723451;83;20976;-40
2021/09/08 01:35:20;;;;;;;15.20;8.78;;;;;;;11.66;56.50;100472.59;1723494;83;21015;-40
2021/09/08 01:37:48;;;;;;;16.37;9.63;;;;;;;11.66;56.51;100470.43;1723804;83;21028;-39
2021/09/08 01:40:16;;;;;;;17.65;9.45;;;;;;;11.65;56.43;100473.71;1723419;83;21526;-40
2021/09/08 01:42:43;;;;;;;14.80;9.45;;;;;;;11.66;56.58;100472.59;1723431;83;21526;-39
2021/09/08 01:45:14;;;;;;;14.87;9.65;;;;;;;11.65;56.53;100470.99;1723420;83;21008;-39
2021/09/08 01:47:41;;;;;;;16.05;10.23;;;;;;;11.65;56.71;100468.27;1722963;83;20984;-39
2021/09/08 01:50:08;;;;;;;15.68;9.30;;;;;;;11.66;56.43;100467.16;1723160;83;21522;-40
2021/09/08 01:52:37;;;;;;;17.00;10.00;;;;;;;11.65;56.40;100461.48;1706516;83;21570;-40
2021/09/08 01:55:06;;;;;;;16.77;9.03;;;;;;;11.66;56.35;100472.59;1669797;86;21843;-39
2021/09/08 01:57:34;;;;;;;21.60;10.32;;;;;;;11.66;56.46;100469.87;1677426;83;20945;-40
2021/09/08 02:00:00;;;;;;;15.18;9.25;;;;;;;11.65;56.48;100469.63;1710654;83;21089;-39
2021/09/08 02:02:27;;;;;;;17.50;9.30;;;;;;;11.64;56.29;100468.05;1723445;83;21520;-39
2021/09/08 02:04:54;;;;;;;18.75;9.15;;;;;;;11.64;56.44;100466.69;1709857;84;21017;-39
2021/09/08 02:07:22;;;;;;;14.03;9.55;;;;;;;11.62;55.85;100468.94;1723533;83;21657;-40
2021/09/08 02:09:49;;;;;;;16.42;9.90;;;;;;;11.58;56.35;100472.67;1709757;84;21045;-40
2021/09/08 02:12:17;;;;;;;16.42;9.73;;;;;;;11.56;56.54;100471.67;1714986;83;21488;-39
2021/09/08 02:14:43;;;;;;;22.37;9.15;;;;;;;11.56;56.51;100474.95;1743850;81;21069;-40
2021/09/08 02:17:10;;;;;;;17.00;9.00;;;;;;;11.55;56.42;100472.00;1707975;84;21052;-39
2021/09/08 02:19:38;;;;;;;16.10;9.48;;;;;;;11.54;56.64;100473.12;1743445;81;21526;-39
2021/09/08 02:22:04;;;;;;;18.02;9.30;;;;;;;11.52;56.50;100469.97;1708283;83;21008;-39
2021/09/08 02:24:31;;;;;;;19.10;9.03;;;;;;;11.51;56.81;100469.73;1743279;81;21081;-40
2021/09/08 02:26:58;;;;;;;14.75;8.90;;;;;;;11.48;56.87;100469.04;1707528;84;21009;-39
2021/09/08 02:29:25;;;;;;;17.60;9.28;;;;;;;11.45;57.03;100471.88;1743330;81;20984;-40
2021/09/08 02:31:52;;;;;;;18.62;10.10;;;;;;;11.42;57.17;100480.71;1707672;84;21805;-39
2021/09/08 02:34:18;;;;;;;14.75;9.20;;;;;;;11.40;57.34;100475.38;1743094;82;21001;-39
2021/09/08 02:36:45;;;;;;;16.57;9.45;;;;;;;11.36;57.44;100482.05;1707700;83;21559;-40
2021/09/08 02:39:13;;;;;;;17.40;10.15;;;;;;;11.33;57.41;100478.63;1743190;82;21081;-39
2021/09/08 02:41:40;;;;;;;17.90;9.53;;;;;;;11.33;57.33;100482.70;1743260;82;21014;-40
2021/09/08 02:44:07;;;;;;;14.95;8.70;;;;;;;11.32;57.02;100479.79;1748178;80;21066;-39
2021/09/08 02:46:34;;;;;;;17.02;8.93;;;;;;;11.27;57.06;100481.36;1748141;82;21542;-39
2021/09/08 02:49:01;;;;;;;16.10;8.95;;;;;;;11.25;57.21;100479.53;1707533;84;21028;-39
2021/09/08 02:51:27;;;;;;;15.53;9.20;;;;;;;11.23;57.76;100479.09;1743421;81;21061;-39
2021/09/08 02:53:53;;;;;;;15.68;8.83;;;;;;;11.22;57.60;100478.86;1707541;84;21032;-40
2021/09/08 02:56:20;;;;;;;19.10;9.95;;;;;;;11.18;57.52;100481.43;1707384;84;21851;-39
2021/09/08 02:58:48;;;;;;;16.50;9.80;;;;;;;11.15;57.89;100479.40;1706790;83;21560;-39
2021/09/08 03:01:14;;;;;;;15.98;9.50;;;;;;;11.13;58.03;100477.61;1701038;84;20952;-40
2021/09/08 03:03:42;;;;;;;15.03;9.00;;;;;;;11.12;58.23;100472.50;1707639;84;21021;-39
2021/09/08 03:06:09;;;;;;;15.93;8.78;;;;;;;11.10;58.17;100469.31;1707581;84;21025;-40
2021/09/08 03:08:36;;;;;;;15.58;8.53;;;;;;;11.07;57.95;100465.93;1707551;84;21921;-40
2021/09/08 03:11:04;;;;;;;16.17;8.75;;;;;;;11.05;58.04;100465.45;1707443;84;21456;-39
2021/09/08 03:13:32;;;;;;;15.90;9.15;;;;;;;11.04;58.31;100467.94;1714660;83;20968;-39
2021/09/08 03:16:00;;;;;;;16.10;9.58;;;;;;;11.02;58.38;100467.50;1715106;83;20988;-40
2021/09/08 03:18:27;;;;;;;16.35;8.88;;;;;;;10.99;58.19;100473.02;1715073;83;21550;-39
2021/09/08 03:20:53;;;;;;;12.95;8.85;;;;;;;10.95;58.01;100478.09;1751321;82;21136;-39
2021/09/08 03:23:20;;;;;;;16.20;8.93;;;;;;;10.93;58.68;100477.65;1752628;80;20925;-39
2021/09/08 03:25:46;;;;;;;15.48;8.88;;;;;;;10.90;58.68;100473.11;1751056;80;21001;-40
2021/09/08 03:28:13;;;;;;;14.87;9.05;;;;;;;10.87;58.57;100472.43;1751542;82;21577;-40
2021/09/08 03:30:39;;;;;;;16.70;9.28;;;;;;;10.87;58.64;100470.27;1751146;82;21061;-39
2021/09/08 03:33:06;;;;;;;19.73;9.83;;;;;;;10.87;58.76;100472.98;1751142;82;21134;-39
2021/09/08 03:35:33;;;;;;;14.38;8.30;;;;;;;10.86;58.96;100469.48;1750914;82;21017;-40
2021/09/08 03:37:59;;;;;;;14.35;8.58;;;;;;;10.86;58.76;100477.62;1749659;82;21536;-40
2021/09/08 03:40:26;;;;;;;17.45;8.93;;;;;;;10.86;58.84;100475.47;1742770;82;21037;-40
2021/09/08 03:42:54;;;;;;;13.95;8.50;;;;;;;10.87;58.78;100479.21;1730080;82;21054;-39
2021/09/08 03:45:21;;;;;;;14.87;8.43;;;;;;;10.86;58.80;100478.98;1721339;83;21141;-39
2021/09/08 03:47:48;;;;;;;16.48;9.40;;;;;;;10.87;59.21;100477.06;1721189;83;20907;-39
2021/09/08 03:50:14;;;;;;;17.07;8.80;;;;;;;10.88;59.29;100479.45;1717732;82;20978;-39
2021/09/08 03:52:41;;;;;;;15.58;9.05;;;;;;;10.89;59.51;100479.66;1751566;81;21004;-40
2021/09/08 03:55:09;;;;;;;14.25;8.35;;;;;;;10.92;59.71;100480.92;1751381;80;20990;-40
2021/09/08 03:57:38;;;;;;;14.70;8.35;;;;;;;11.02;59.80;100486.48;1752240;80;21511;-40
2021/09/08 04:00:07;;;;;;;12.82;8.10;;;;;;;11.12;59.38;100486.07;1754013;81;21059;-39
2021/09/08 04:02:33;;;;;;;15.40;8.10;;;;;;;11.17;59.60;100486.66;1754269;81;21039;-39
2021/09/08 04:05:04;;;;;;;13.28;8.55;;;;;;;11.25;59.40;100483.61;1754290;81;21593;-40
2021/09/08 04:07:31;;;;;;;13.98;8.30;;;;;;;11.31;58.80;100482.27;1754519;81;21490;-40
2021/09/08 04:09:58;;;;;;;15.48;8.70;;;;;;;11.34;58.54;100481.02;1751354;81;21131;-40
2021/09/08 04:12:25;;;;;;;14.75;8.20;;;;;;;11.39;58.43;100483.28;1752964;81;20941;-40
2021/09/08 04:14:53;;;;;;;13.13;8.43;;;;;;;11.42;58.34;100481.27;1720451;83;21024;-40
2021/09/08 04:17:21;;;;;;;14.28;8.38;;;;;;;11.42;58.32;100483.42;1720563;83;21479;-39
2021/09/08 04:19:48;;;;;;;14.63;8.20;;;;;;;11.46;58.24;100476.19;1717449;83;21010;-40
2021/09/08 04:22:15;;;;;;;15.13;8.43;;;;;;;11.49;58.15;100479.57;1711942;83;21129;-40
2021/09/08 04:24:41;;;;;;;13.90;8.20;;;;;;;11.48;57.74;100478.55;1710038;83;21025;-40
2021/09/08 04:27:08;;;;;;;15.63;9.20;;;;;;;11.48;58.14;100473.91;1710361;83;21540;-40
2021/09/08 04:29:34;;;;;;;13.85;8.23;;;;;;;11.52;57.81;100474.05;1709922;83;21049;-40
2021/09/08 04:32:03;;;;;;;12.82;8.35;;;;;;;11.53;57.39;100470.97;1709875;83;21093;-40
2021/09/08 04:34:30;;;;;;;12.70;8.13;;;;;;;11.50;57.80;100468.95;1709847;83;21524;-40
2021/09/08 04:36:58;;;;;;;14.68;8.40;;;;;;;11.52;57.54;100472.09;1709906;83;20990;-40
2021/09/08 04:39:24;;;;;;;13.40;8.08;;;;;;;11.53;57.38;100480.48;1709727;83;21027;-40
2021/09/08 04:41:51;;;;;;;12.10;7.85;;;;;;;11.55;57.17;100479.58;1707847;83;20965;-40
2021/09/08 04:44:17;;;;;;;14.50;7.35;;;;;;;11.53;57.20;100475.05;1697339;84;21586;-40
2021/09/08 04:46:44;;;;;;;12.23;8.08;;;;;;;11.51;57.69;100473.81;1697187;84;21166;-40
2021/09/08 04:49:11;;;;;;;12.75;7.67;;;;;;;11.51;57.63;100472.45;1697324;84;21087;-40
2021/09/08 04:51:39;;;;;;;16.02;7.80;;;;;;;11.51;57.87;100467.82;1705600;83;21121;-40
2021/09/08 04:54:05;;;;;;;12.25;7.60;;;;;;;11.52;57.95;100468.02;1684860;83;21044;-40
2021/09/08 04:56:33;;;;;;;13.28;7.90;;;;;;;11.23;58.22;100422.09;1700031;82;21041;-40
2021/09/08 04:59:00;;;;;;;14.00;7.65;;;;;;;11.58;58.16;100473.47;1700706;84;21772;-40
2021/09/08 05:01:26;;;;;;;12.28;7.45;;;;;;;11.63;58.31;100473.24;1700799;84;20933;-40
2021/09/08 05:03:53;;;;;;;13.35;7.47;;;;;;;11.69;58.45;100469.73;1700797;84;20986;-40
2021/09/08 05:06:19;;;;;;;12.80;7.83;;;;;;;11.75;58.36;100477.37;1700776;84;21040;-40
2021/09/08 05:08:46;;;;;;;15.03;7.65;;;;;;;11.78;58.37;100473.16;1700748;84;21033;-39
2021/09/08 05:11:13;;;;;;;11.90;7.40;;;;;;;11.83;58.43;100476.22;1700989;84;21058;-39
2021/09/08 05:13:41;;;;;;;12.00;7.65;;;;;;;11.87;57.97;100470.33;1701314;83;21650;-39
2021/09/08 05:16:10;;;;;;;12.50;7.30;;;;;;;11.88;57.86;100471.91;1699837;84;21025;-40
2021/09/08 05:18:37;;;;;;;;;;;;;;;11.92;57.80;100472.81;1702037;83;21089;-40
2021/09/08 05:21:04;;;;;;;14.15;7.40;;;;;;;11.97;57.77;100469.30;1699552;84;20451;-40
2021/09/08 05:23:31;;;;;;;12.50;7.15;;;;;;;11.95;58.14;100466.16;1699422;84;21159;-40
2021/09/08 05:25:59;;;;;;;11.95;7.95;;;;;;;12.07;58.08;100470.76;1743102;82;21168;-40
2021/09/08 05:28:27;;;;;;;13.55;7.37;;;;;;;12.16;58.16;100465.98;1743053;82;21045;-40
2021/09/08 05:30:53;;;;;;;13.40;7.08;;;;;;;12.27;58.32;100471.75;1743141;80;21268;-40
2021/09/08 05:33:20;;;;;;;12.95;7.12;;;;;;;12.36;58.48;100466.96;1707248;84;21103;-40
2021/09/08 05:35:46;;;;;;;12.90;6.62;;;;;;;12.42;58.33;100463.67;1743620;81;21531;-40
2021/09/08 05:38:13;;;;;;;14.73;6.87;;;;;;;12.48;58.25;100465.58;1707379;83;20972;-40
2021/09/08 05:40:40;;;;;;;12.50;7.17;;;;;;;12.56;58.13;100458.63;1707836;83;21029;-40
2021/09/08 05:43:07;;;;;;;10.70;6.45;;;;;;;12.65;58.16;100461.20;1687223;83;20995;-40
2021/09/08 05:45:33;;;;;;;13.28;7.10;;;;;;;12.72;57.95;100458.69;1652084;86;21037;-40
2021/09/08 05:48:00;;;;;;;11.90;6.37;;;;;;;12.80;57.90;100459.09;1690371;84;21600;-40
2021/09/08 05:50:27;;;;;;;16.87;6.50;;;;;;;12.87;58.32;100453.86;1691163;84;21003;-40
2021/09/08 05:52:54;;;;;;;11.22;6.53;;;;;;;12.97;57.02;100451.20;1692260;83;21580;-40
2021/09/08 05:55:21;;;;;;;11.40;6.50;;;;;;;13.04;56.75;100458.18;1671061;85;21001;-40
2021/09/08 05:57:47;;;;;;;9.38;6.58;;;;;;;13.15;56.90;100460.66;1743357;82;21525;-40
2021/09/08 06:00:16;;;;;;;12.13;6.05;;;;;;;13.25;56.44;100456.05;1743290;82;21095;-40
2021/09/08 06:02:42;;;;;;;9.98;6.17;;;;;;;13.33;56.23;100453.72;1743420;82;20883;-40
2021/09/08 06:05:10;;;;;;;12.53;5.83;;;;;;;13.42;55.80;100448.88;1707876;84;21009;-40
2021/09/08 06:07:37;;;;;;;14.25;6.28;;;;;;;13.51;56.09;100442.48;1703740;84;21045;-40
2021/09/08 06:10:06;;;;;;;12.98;6.17;;;;;;;13.59;55.77;100445.02;1674061;85;21601;-40
2021/09/08 06:12:33;;;;;;;11.95;6.15;;;;;;;13.68;55.34;100448.92;1652474;86;21120;-40
2021/09/08 06:15:00;;;;;;;12.70;6.00;;;;;;;13.75;55.12;100442.26;1652334;86;20981;-40
2021/09/08 06:17:28;;;;;;;16.15;6.70;;;;;;;13.82;56.03;100444.59;1652278;86;21053;-40
2021/09/08 06:19:55;;;;;;;13.90;6.37;;;;;;;13.95;55.68;100454.80;1652303;86;21013;-40
2021/09/08 06:22:23;;;;;;;14.43;6.10;;;;;;;14.05;54.76;100459.70;1692742;84;20975;-40
2021/09/08 06:24:50;;;;;;;21.62;6.70;;;;;;;14.15;55.06;100454.27;1692108;84;21176;-40
2021/09/08 06:27:17;;;;;;;16.07;6.15;;;;;;;14.23;55.35;100455.42;1685053;85;21066;-40
2021/09/08 06:29:44;;;;;;;9.63;5.95;;;;;;;14.34;54.62;100454.30;1688109;84;21608;-40
2021/09/08 06:32:10;;;;;;;14.13;6.62;;;;;;;14.42;54.58;100451.98;1686133;84;21025;-40
2021/09/08 06:34:41;;;;;;;14.25;5.90;;;;;;;14.49;53.98;100450.75;1692137;84;21041;-40
2021/09/08 06:37:07;;;;;;;9.73;5.67;;;;;;;14.58;54.13;100451.89;1690862;83;21158;-40
2021/09/08 06:39:34;;;;;;;9.60;5.85;;;;;;;14.68;53.85;100444.48;1710113;83;21538;-40
2021/09/08 06:42:01;;;;;;;11.30;5.45;;;;;;;14.78;53.91;100442.55;1707389;84;21452;-40
2021/09/08 06:44:28;;;;;;;9.35;5.28;;;;;;;14.91;53.79;100434.39;1707599;84;20976;-40
2021/09/08 06:46:54;;;;;;;9.38;5.65;;;;;;;15.03;53.34;100443.80;1707610;84;21084;-40
2021/09/08 06:49:22;;;;;;;9.93;5.15;;;;;;;15.16;53.73;100437.00;1707516;84;21143;-40
2021/09/08 06:51:48;;;;;;;9.30;5.78;;;;;;;15.31;53.17;100435.88;1706616;84;20929;-40
2021/09/08 06:54:15;;;;;;;9.18;5.17;;;;;;;15.46;52.47;100437.70;1743281;81;20938;-40
2021/09/08 06:56:42;;;;;;;8.63;5.05;;;;;;;15.58;51.82;100434.24;1743399;82;21030;-40
2021/09/08 06:59:09;;;;;;;12.10;5.53;;;;;;;15.70;51.29;100430.50;1744478;80;21251;-40
2021/09/08 07:01:35;;;;;;;9.40;5.17;;;;;;;15.79;51.23;100436.49;1745008;80;21119;-40
2021/09/08 07:04:03;;;;;;;9.03;5.12;;;;;;;15.89;50.84;100434.50;1743366;80;21013;-40
2021/09/08 07:06:31;;;;;;;7.95;4.80;;;;;;;15.98;50.94;100436.38;1743774;80;21012;-40
2021/09/08 07:08:58;;;;;;;9.05;5.25;;;;;;;16.09;50.99;100435.95;1743337;82;21681;-40
2021/09/08 07:11:26;;;;;;;11.80;5.15;;;;;;;16.22;50.68;100437.88;1743214;82;21018;-40
2021/09/08 07:13:52;;;;;;;9.10;5.20;;;;;;;16.34;50.26;100443.13;1750397;81;21472;-40
2021/09/08 07:16:20;;;;;;;11.45;5.30;;;;;;;16.45;50.06;100447.37;1756675;81;21016;-40
2021/09/08 07:18:46;;;;;;;14.43;5.58;;;;;;;16.54;49.68;100445.14;1756703;81;21072;-40
2021/09/08 07:21:14;;;;;;;9.20;5.65;;;;;;;16.64;49.97;100452.72;1720570;83;21626;-40
2021/09/08 07:23:40;;;;;;;7.97;4.80;;;;;;;16.75;49.58;100454.98;1720791;83;21777;-40
2021/09/08 07:26:07;;;;;;;13.98;5.12;;;;;;;16.87;49.16;100446.52;1717318;83;21146;-40
2021/09/08 07:28:33;;;;;;;8.35;4.90;;;;;;;16.97;49.24;100451.91;1702031;84;21091;-40
2021/09/08 07:31:00;;;;;;;13.50;5.25;;;;;;;17.11;49.23;100449.89;1712297;83;21044;-40
2021/09/08 07:33:27;;;;;;;11.93;5.22;;;;;;;17.25;48.60;100443.95;1720297;83;21526;-40
2021/09/08 07:35:53;;;;;;;16.70;5.10;;;;;;;17.36;48.39;100440.73;1686095;85;21036;-40
2021/09/08 07:38:20;;;;;;;10.68;5.30;;;;;;;17.49;48.42;100446.70;1714674;83;21169;-40
2021/09/08 07:40:47;;;;;;;7.95;4.97;;;;;;;17.61;47.55;100447.83;1714575;83;20950;-40
2021/09/08 07:43:13;;;;;;;9.60;5.08;;;;;;;17.70;47.57;100441.43;1720547;83;20961;-40
2021/09/08 07:45:40;;;;;;;9.80;5.42;;;;;;;17.81;47.21;100443.64;1702409;84;21097;-40
2021/09/08 07:48:07;;;;;;;13.15;5.20;;;;;;;17.92;47.08;100438.23;1720672;83;21064;-40
2021/09/08 07:50:33;;;;;;;11.43;5.42;;;;;;;18.02;46.94;100443.58;1702261;82;21833;-40
2021/09/08 07:53:03;;;;;;;14.05;5.33;;;;;;;18.09;46.73;100429.33;1720496;83;21761;-40
2021/09/08 07:55:29;;;;;;;7.67;4.58;;;;;;;18.18;46.92;100435.26;1702208;84;20942;-40
2021/09/08 07:57:56;;;;;;;7.78;4.70;;;;;;;18.29;46.29;100431.20;1720622;83;21010;-40
2021/09/08 08:00:23;;;;;;;11.08;5.30;;;;;;;18.42;46.13;100431.63;1702479;84;21045;-40
2021/09/08 08:02:51;;;;;;;11.33;4.75;;;;;;;18.55;46.57;100432.30;1720409;83;21152;-40
2021/09/08 08:05:18;;;;;;;10.08;5.10;;;;;;;18.71;46.07;100425.69;1702457;84;21025;-40
2021/09/08 08:07:45;;;;;;;10.00;4.87;;;;;;;18.86;45.31;100420.43;1695674;83;21014;-40
2021/09/08 08:10:13;;;;;;;9.60;4.67;;;;;;;18.97;44.90;100421.24;1678626;85;21041;-40
2021/09/08 08:12:40;;;;;;;7.47;4.78;;;;;;;19.04;45.38;100422.03;1678876;85;21546;-40
2021/09/08 08:15:08;;;;;;;8.48;4.97;;;;;;;19.15;44.77;100422.63;1671374;85;21134;-40
2021/09/08 08:17:35;;;;;;;9.88;4.42;;;;;;;19.25;44.40;100426.77;1670370;85;21002;-40
2021/09/08 08:20:04;;;;;;;9.65;4.70;;;;;;;19.33;44.73;100415.96;1670527;84;21591;-40
2021/09/08 08:22:31;;;;;;;10.93;5.07;;;;;;;19.46;44.78;100411.66;1662892;86;21041;-40
2021/09/08 08:24:57;;;;;;;28.30;7.22;;;;;;;19.59;44.51;100416.19;1650066;85;21539;-40
2021/09/08 08:27:24;;;;;;;14.15;5.00;;;;;;;19.72;44.48;100420.69;1707855;84;21575;-40
2021/09/08 08:29:50;;;;;;;20.02;5.90;;;;;;;19.82;43.09;100412.41;1710064;83;20949;-40
2021/09/08 08:32:17;;;;;;;8.35;4.28;;;;;;;19.93;43.55;100411.02;1728286;83;21492;-40
2021/09/08 08:34:44;;;;;;;11.60;4.58;;;;;;;20.01;43.04;100413.94;1728358;83;21032;-41
2021/09/08 08:37:11;;;;;;;7.47;3.98;;;;;;;20.06;42.81;100414.13;1728273;83;21476;-40
2021/09/08 08:39:38;;;;;;;17.00;5.00;;;;;;;20.14;43.35;100419.20;1724571;83;21221;-40
2021/09/08 08:42:13;;;;;;;10.18;4.37;;;;;;;20.23;42.86;100414.09;1728389;83;21032;-40
2021/09/08 08:44:35;;;;;;;14.33;5.17;;;;;;;20.36;42.33;100414.45;1714380;82;21426;-40
2021/09/08 08:47:03;;;;;;;8.63;4.70;;;;;;;20.48;42.23;100416.74;1680791;85;20973;-40
2021/09/08 08:49:30;;;;;;;25.37;5.87;;;;;;;20.55;41.57;100415.94;1685404;81;21038;-40
2021/09/08 08:51:56;;;;;;;11.15;4.45;;;;;;;20.61;41.78;100417.09;1711606;82;21493;-41
2021/09/08 08:54:23;;;;;;;7.95;4.40;;;;;;;20.70;42.20;100417.44;1728079;82;20981;-41
2021/09/08 08:56:52;;;;;;;7.35;4.83;;;;;;;20.82;41.98;100410.86;1726952;83;21604;-40
2021/09/08 08:59:19;;;;;;;15.28;4.10;;;;;;;20.99;41.18;100415.30;1726901;82;21466;-41
2021/09/08 09:01:46;;;;;;;8.10;4.60;;;;;;;21.13;41.22;100420.70;1726932;83;21614;-40
2021/09/08 09:04:14;;;;;;;23.00;6.45;;;;;;;21.24;40.82;100426.97;1726812;82;21144;-41
2021/09/08 09:06:42;;;;;;;10.80;4.60;;;;;;;21.30;40.77;100416.29;1727032;83;20947;-40
2021/09/08 09:09:15;;;;;;;9.60;4.47;;;;;;;21.39;40.62;100417.39;1725292;83;21032;-40
2021/09/08 09:11:44;;;;;;;9.95;5.25;;;;;;;21.49;40.10;100421.25;1710883;83;20956;-40
2021/09/08 09:14:13;;;;;;;11.55;4.95;;;;;;;21.61;40.61;100418.77;1710223;83;21523;-41
2021/09/08 09:16:43;;;;;;;5.97;3.75;;;;;;;21.75;39.92;100408.17;1710154;83;20933;-40
2021/09/08 09:19:11;;;;;;;9.38;4.30;;;;;;;21.82;39.52;100410.88;1710279;83;21016;-41
2021/09/08 09:21:38;;;;;;;12.07;4.15;;;;;;;21.87;39.57;100411.81;1727335;81;20976;-40
2021/09/08 09:24:07;;;;;;;9.98;4.60;;;;;;;21.93;39.77;100406.04;1726427;81;21068;-40
2021/09/08 09:26:40;;;;;;;11.90;5.05;;;;;;;22.05;38.90;100403.36;1714128;83;21542;-41
2021/09/08 09:29:16;;;;;;;6.58;4.15;;;;;;;22.13;39.41;100401.29;1724736;83;21115;-40
2021/09/08 09:31:58;;;;;;;8.75;4.35;;;;;;;22.20;38.97;100390.95;1726745;82;21013;-40
2021/09/08 09:34:29;;;;;;;9.70;4.75;;;;;;;22.29;38.03;100396.76;1699955;82;21161;-41
2021/09/08 09:36:58;;;;;;;15.60;4.92;;;;;;;22.41;38.39;100385.77;1699519;84;21028;-41
2021/09/08 09:39:29;;;;;;;7.92;4.45;;;;;;;22.49;38.45;100383.88;1701306;83;21536;-40
2021/09/08 09:42:09;;;;;;;8.40;4.45;;;;;;;22.58;37.57;100381.97;1710194;83;21116;-40
2021/09/08 09:44:36;;;;;;;10.38;4.75;;;;;;;22.73;37.88;100390.28;1705445;83;21037;-40
2021/09/08 09:47:03;;;;;;;8.58;4.42;;;;;;;22.93;38.40;100384.27;1710376;83;21049;-41
2021/09/08 09:49:33;;;;;;;8.93;4.97;;;;;;;23.17;37.87;100384.28;1713339;81;21080;-40
2021/09/08 09:52:05;;;;;;;16.90;4.60;;;;;;;23.39;38.15;100378.56;1728409;82;21048;-40
2021/09/08 09:54:33;;;;;;;8.25;4.35;;;;;;;23.60;37.46;100379.61;1728356;83;21147;-41
2021/09/08 09:56:59;;;;;;;12.40;5.00;;;;;;;23.78;35.46;100373.14;1720606;82;21044;-41
2021/09/08 09:59:27;;;;;;;5.75;4.35;;;;;;;23.85;35.21;100379.16;1703354;84;20946;-40
2021/09/08 10:01:54;;;;;;;9.35;4.47;;;;;;;23.91;36.32;100373.91;1679700;85;21502;-41
2021/09/08 10:04:21;;;;;;;9.68;4.40;;;;;;;23.96;35.67;100372.03;1725965;82;21029;-41
2021/09/08 10:06:48;;;;;;;8.03;4.10;;;;;;;23.99;34.96;100382.25;1717358;81;21080;-41
2021/09/08 10:09:15;;;;;;;8.83;4.30;;;;;;;24.00;35.17;100369.97;1727097;83;21068;-41
2021/09/08 10:11:45;;;;;;;8.18;4.33;;;;;;;23.99;35.54;100368.40;1703409;82;21060;-41
2021/09/08 10:14:15;;;;;;;7.47;4.15;;;;;;;24.02;35.12;100360.02;1712451;83;20991;-41
2021/09/08 10:16:47;;;;;;;;;;;;;;;24.08;34.52;100363.86;1723115;83;21048;-41
2021/09/08 10:19:25;;;;;;;8.83;4.05;;;;;;;24.17;35.31;100354.99;1735826;81;21081;-41
2021/09/08 10:21:56;;;;;;;6.37;4.12;;;;;;;24.15;34.45;100361.55;1722570;81;21650;-41
2021/09/08 10:24:24;;;;;;;7.65;4.08;;;;;;;24.20;34.09;100348.61;1719567;83;21030;-41
2021/09/08 10:26:51;;;;;;;8.48;4.35;;;;;;;24.28;34.34;100345.86;1725608;83;20972;-41
2021/09/08 10:29:25;;;;;;;8.85;4.22;;;;;;;24.36;34.28;100348.64;1729639;81;20997;-41
2021/09/08 10:31:52;;;;;;;5.87;3.98;;;;;;;24.38;34.11;100352.37;1706707;82;21126;-40
2021/09/08 10:34:20;;;;;;;12.70;4.37;;;;;;;24.41;34.26;100341.21;1680499;83;21817;-41
2021/09/08 10:36:47;;;;;;;11.65;4.78;;;;;;;24.51;33.57;100338.80;1724645;82;20990;-41
2021/09/08 10:39:16;;;;;;;6.33;4.03;;;;;;;24.54;33.10;100338.57;1688949;82;21535;-41
2021/09/08 10:41:52;;;;;;;6.87;4.10;;;;;;;24.53;33.02;100337.78;1734796;82;21020;-41
2021/09/08 10:44:22;;;;;;;8.10;4.12;;;;;;;24.60;33.07;100331.28;1714293;83;21794;-41
2021/09/08 10:46:59;;;;;;;9.45;4.67;;;;;;;24.68;33.49;100337.64;1728884;81;20924;-41
2021/09/08 10:49:45;;;;;;;9.48;4.58;;;;;;;24.83;34.00;100333.14;1730576;81;20986;-41
2021/09/08 10:52:36;;;;;;;9.08;4.12;;;;;;;24.90;32.86;100332.98;1737103;82;21073;-41
2021/09/08 10:55:20;;;;;;;6.40;4.28;;;;;;;24.99;33.47;100326.22;1739221;82;21072;-41
2021/09/08 10:57:52;;;;;;;7.72;4.40;;;;;;;25.09;33.46;100328.73;1740257;82;21935;-41
2021/09/08 11:00:30;;;;;;;6.83;4.20;;;;;;;25.19;33.07;100314.41;1739285;82;20932;-41
2021/09/08 11:02:57;;;;;;;10.08;4.97;;;;;;;25.27;32.43;100313.64;1739565;82;21016;-41
2021/09/08 11:05:23;;;;;;;5.62;4.35;;;;;;;25.35;32.26;100318.56;1732458;81;21022;-41
2021/09/08 11:07:51;;;;;;;16.75;5.45;;;;;;;25.30;31.97;100318.31;1720662;83;21086;-41
2021/09/08 11:10:33;;;;;;;31.10;6.92;;;;;;;25.27;32.34;100320.58;1720789;83;20990;-41
2021/09/08 11:13:02;;;;;;;7.15;4.83;;;;;;;25.32;32.83;100324.97;1720768;83;21010;-41
2021/09/08 11:15:38;;;;;;;9.15;4.70;;;;;;;25.49;31.98;100318.19;1720399;83;21038;-41
2021/09/08 11:18:12;;;;;;;6.20;4.60;;;;;;;25.62;31.65;100323.02;1724696;81;21004;-41
2021/09/08 11:20:40;;;;;;;5.37;4.33;;;;;;;25.65;31.43;100312.45;1708383;82;21035;-41
2021/09/08 11:23:14;;;;;;;7.58;4.67;;;;;;;25.74;31.65;100313.98;1712315;82;21028;-41
2021/09/08 11:25:43;;;;;;;8.18;4.70;;;;;;;25.83;31.85;100317.67;1734307;82;20988;-41